createdAt,value
2018-12-26T00:00:01.835Z,33.20
2018-12-26T00:01:01.676Z,31.50
2018-12-26T00:02:01.680Z,31.90
2018-12-26T00:03:01.655Z,32.20
2018-12-26T00:04:01.666Z,32.40
2018-12-26T00:05:01.634Z,32.80
2018-12-26T00:06:01.621Z,32.60
2018-12-26T00:07:01.609Z,32.00
2018-12-26T00:08:01.608Z,33.10
2018-12-26T00:09:01.595Z,30.10
2018-12-26T00:10:01.601Z,33.30
2018-12-26T00:11:01.577Z,31.70
2018-12-26T00:12:01.556Z,31.70
2018-12-26T00:13:01.546Z,30.70
2018-12-26T00:14:01.551Z,30.60
2018-12-26T00:15:01.531Z,31.50
2018-12-26T00:16:01.513Z,29.30
2018-12-26T00:17:01.502Z,30.20
2018-12-26T00:18:01.577Z,30.20
2018-12-26T00:19:01.485Z,29.50
2018-12-26T00:20:01.703Z,27.30
2018-12-26T00:21:01.455Z,30.80
2018-12-26T00:22:01.486Z,28.30
2018-12-26T00:23:01.437Z,28.90
2018-12-26T00:24:01.450Z,28.40
2018-12-26T00:25:01.435Z,27.80
2018-12-26T00:26:01.981Z,28.80
2018-12-26T00:27:01.391Z,27.70
2018-12-26T00:28:01.389Z,29.00
2018-12-26T00:29:01.378Z,28.50
2018-12-26T00:30:01.377Z,30.40
2018-12-26T00:31:01.365Z,30.60
2018-12-26T00:32:01.341Z,29.40
2018-12-26T00:33:01.338Z,28.60
2018-12-26T00:34:01.366Z,28.40
2018-12-26T00:35:01.320Z,30.10
2018-12-26T00:36:01.317Z,30.40
2018-12-26T00:37:01.281Z,29.90
2018-12-26T00:38:01.270Z,30.20
2018-12-26T00:39:01.263Z,28.80
2018-12-26T00:40:01.277Z,30.90
2018-12-26T00:41:01.247Z,27.00
2018-12-26T00:42:01.231Z,30.30
2018-12-26T00:43:01.222Z,29.30
2018-12-26T00:44:01.208Z,30.40
2018-12-26T00:45:01.224Z,30.50
2018-12-26T00:46:01.191Z,31.10
2018-12-26T00:47:01.189Z,32.00
2018-12-26T00:48:01.163Z,31.30
2018-12-26T00:49:01.156Z,32.10
2018-12-26T00:50:01.166Z,30.00
2018-12-26T00:51:01.137Z,30.30
2018-12-26T00:52:01.127Z,30.20
2018-12-26T00:53:01.112Z,31.60
2018-12-26T00:54:01.104Z,32.50
2018-12-26T00:55:01.090Z,32.60
2018-12-26T00:56:01.090Z,29.10
2018-12-26T00:57:01.069Z,30.10
2018-12-26T00:58:01.125Z,29.40
2018-12-26T00:59:01.048Z,30.60
2018-12-26T01:00:01.035Z,31.50
2018-12-26T01:01:01.035Z,31.10
2018-12-26T01:02:01.018Z,33.10
2018-12-26T01:03:01.000Z,30.80
2018-12-26T01:04:01.014Z,29.00
2018-12-26T01:05:00.991Z,30.20
2018-12-26T01:06:01.002Z,31.50
2018-12-26T01:07:00.957Z,31.30
2018-12-26T01:08:00.958Z,30.80
2018-12-26T01:09:00.935Z,31.00
2018-12-26T01:10:00.953Z,30.10
2018-12-26T01:11:00.934Z,31.20
2018-12-26T01:12:00.932Z,30.30
2018-12-26T01:13:00.893Z,30.20
2018-12-26T01:14:00.897Z,31.80
2018-12-26T01:15:00.872Z,29.80
2018-12-26T01:16:00.872Z,31.30
2018-12-26T01:17:00.869Z,29.30
2018-12-26T01:18:00.860Z,31.40
2018-12-26T01:19:00.842Z,30.80
2018-12-26T01:20:00.829Z,34.00
2018-12-26T01:21:00.815Z,29.90
2018-12-26T01:22:00.892Z,33.20
2018-12-26T01:23:00.808Z,35.20
2018-12-26T01:24:00.780Z,33.60
2018-12-26T01:25:00.807Z,33.90
2018-12-26T01:26:00.783Z,35.80
2018-12-26T01:27:00.746Z,35.90
2018-12-26T01:28:00.742Z,35.30
2018-12-26T01:29:00.738Z,36.00
2018-12-26T01:30:00.710Z,37.70
2018-12-26T01:31:00.705Z,37.50
2018-12-26T01:32:00.704Z,37.20
2018-12-26T01:33:00.677Z,37.60
2018-12-26T01:34:00.733Z,40.80
2018-12-26T01:35:00.666Z,39.40
2018-12-26T01:36:00.646Z,41.00
2018-12-26T01:37:00.646Z,41.20
2018-12-26T01:38:00.623Z,41.40
2018-12-26T01:39:00.614Z,40.50
2018-12-26T01:40:00.605Z,41.90
2018-12-26T01:41:00.595Z,42.30
2018-12-26T01:42:00.590Z,38.20
2018-12-26T01:43:00.571Z,42.10
2018-12-26T01:44:00.559Z,45.10
2018-12-26T01:45:00.556Z,43.50
2018-12-26T01:46:00.542Z,44.80
2018-12-26T01:47:00.538Z,44.80
2018-12-26T01:48:00.517Z,42.90
2018-12-26T01:49:00.504Z,46.20
2018-12-26T01:50:00.493Z,46.00
2018-12-26T01:51:00.495Z,45.80
2018-12-26T01:52:00.486Z,45.10
2018-12-26T01:53:00.463Z,44.90
2018-12-26T01:54:00.449Z,44.90
2018-12-26T01:55:00.441Z,46.70
2018-12-26T01:56:00.432Z,45.90
2018-12-26T01:57:00.454Z,44.50
2018-12-26T01:58:00.406Z,47.60
2018-12-26T01:59:00.414Z,46.60
2018-12-26T02:00:00.406Z,42.60
2018-12-26T02:01:00.392Z,44.80
2018-12-26T02:02:00.383Z,43.70
2018-12-26T02:03:00.362Z,47.40
2018-12-26T02:04:00.342Z,48.50
2018-12-26T02:05:00.371Z,45.20
2018-12-26T02:06:00.320Z,46.90
2018-12-26T02:07:00.313Z,48.60
2018-12-26T02:08:00.320Z,51.20
2018-12-26T02:10:31.255Z,43.50
2018-12-26T02:11:09.008Z,45.30
2018-12-26T02:12:09.061Z,46.20
2018-12-26T02:13:08.995Z,46.30
2018-12-26T02:14:08.970Z,45.80
2018-12-26T02:15:08.960Z,47.00
2018-12-26T02:16:08.951Z,47.20
2018-12-26T02:17:08.956Z,46.20
2018-12-26T02:18:08.927Z,45.10
2018-12-26T02:19:08.940Z,47.20
2018-12-26T02:20:08.908Z,53.10
2018-12-26T02:21:08.907Z,50.60
2018-12-26T02:22:08.907Z,47.80
2018-12-26T02:23:08.877Z,48.50
2018-12-26T02:24:08.865Z,49.80
2018-12-26T02:25:08.863Z,51.00
2018-12-26T02:26:08.844Z,50.30
2018-12-26T02:27:08.877Z,49.20
2018-12-26T02:28:08.819Z,53.00
2018-12-26T02:29:08.811Z,50.10
2018-12-26T02:30:08.800Z,50.70
2018-12-26T02:31:08.800Z,53.20
2018-12-26T02:32:08.798Z,52.90
2018-12-26T02:33:08.769Z,53.40
2018-12-26T02:34:08.759Z,53.60
2018-12-26T02:35:08.749Z,52.50
2018-12-26T02:36:08.733Z,56.10
2018-12-26T02:37:08.751Z,60.30
2018-12-26T02:38:08.715Z,56.80
2018-12-26T02:39:08.731Z,55.50
2018-12-26T02:40:08.703Z,55.50
2018-12-26T02:41:08.694Z,57.80
2018-12-26T02:42:08.685Z,53.80
2018-12-26T02:43:08.661Z,53.60
2018-12-26T02:44:08.651Z,51.70
2018-12-26T02:45:08.649Z,53.70
2018-12-26T02:46:08.642Z,54.30
2018-12-26T02:47:08.633Z,53.40
2018-12-26T02:48:08.602Z,51.80
2018-12-26T02:49:08.600Z,54.30
2018-12-26T02:50:08.587Z,52.10
2018-12-26T02:51:08.573Z,56.80
2018-12-26T02:52:08.562Z,56.10
2018-12-26T02:53:08.561Z,54.30
2018-12-26T02:54:08.540Z,58.70
2018-12-26T02:55:08.535Z,57.70
2018-12-26T02:56:08.515Z,58.00
2018-12-26T02:57:08.522Z,59.10
2018-12-26T02:58:08.523Z,57.40
2018-12-26T02:59:08.484Z,59.00
2018-12-26T03:00:08.475Z,58.70
2018-12-26T03:01:08.476Z,58.40
2018-12-26T03:02:08.459Z,61.50
2018-12-26T03:03:08.457Z,56.60
2018-12-26T03:04:08.427Z,57.20
2018-12-26T03:05:08.419Z,58.00
2018-12-26T03:06:08.417Z,57.80
2018-12-26T03:07:08.411Z,60.50
2018-12-26T03:08:08.404Z,56.20
2018-12-26T03:09:08.378Z,54.60
2018-12-26T03:10:08.365Z,57.00
2018-12-26T03:11:08.357Z,57.20
2018-12-26T03:12:08.355Z,56.30
2018-12-26T03:13:08.351Z,59.90
2018-12-26T03:14:08.339Z,56.50
2018-12-26T03:15:08.312Z,57.10
2018-12-26T03:16:08.302Z,57.20
2018-12-26T03:17:08.289Z,60.20
2018-12-26T03:18:08.294Z,55.30
2018-12-26T03:19:08.268Z,61.80
2018-12-26T03:20:08.276Z,64.70
2018-12-26T03:21:08.246Z,63.20
2018-12-26T03:22:08.248Z,59.20
2018-12-26T03:23:08.233Z,62.90
2018-12-26T03:24:08.218Z,63.90
2018-12-26T03:25:08.211Z,60.60
2018-12-26T03:26:08.211Z,58.20
2018-12-26T03:27:08.180Z,64.00
2018-12-26T03:28:08.182Z,62.00
2018-12-26T03:29:08.159Z,63.10
2018-12-26T03:30:08.152Z,62.60
2018-12-26T03:31:08.154Z,61.20
2018-12-26T03:32:08.163Z,60.90
2018-12-26T03:33:08.127Z,61.80
2018-12-26T03:34:08.107Z,61.50
2018-12-26T03:35:08.095Z,60.40
2018-12-26T03:36:08.100Z,60.80
2018-12-26T03:37:08.081Z,60.60
2018-12-26T03:38:08.092Z,58.60
2018-12-26T03:39:08.053Z,59.00
2018-12-26T03:40:08.039Z,59.60
2018-12-26T03:41:08.031Z,57.40
2018-12-26T03:42:08.023Z,57.40
2018-12-26T03:43:08.026Z,60.90
2018-12-26T03:44:07.996Z,60.70
2018-12-26T03:45:08.021Z,60.70
2018-12-26T03:46:07.977Z,60.80
2018-12-26T03:47:07.992Z,59.90
2018-12-26T03:48:07.956Z,63.70
2018-12-26T03:49:07.966Z,71.70
2018-12-26T03:50:07.939Z,71.80
2018-12-26T03:51:07.931Z,70.40
2018-12-26T03:52:07.909Z,99.20
2018-12-26T03:53:07.909Z,65.70
2018-12-26T03:54:07.914Z,70.40
2018-12-26T03:55:07.878Z,64.70
2018-12-26T03:56:07.946Z,67.50
2018-12-26T03:57:07.855Z,70.30
2018-12-26T03:58:07.847Z,69.40
2018-12-26T03:59:07.855Z,75.60
2018-12-26T04:00:07.832Z,76.30
2018-12-26T04:01:07.828Z,80.30
2018-12-26T04:02:07.808Z,73.60
2018-12-26T04:03:07.795Z,69.20
2018-12-26T04:04:07.791Z,67.60
2018-12-26T04:05:07.772Z,71.60
2018-12-26T04:06:07.772Z,68.60
2018-12-26T04:07:07.765Z,75.70
2018-12-26T04:08:07.739Z,62.80
2018-12-26T04:09:07.736Z,77.60
2018-12-26T04:10:07.716Z,67.00
2018-12-26T04:11:07.734Z,75.50
2018-12-26T04:12:07.699Z,76.30
2018-12-26T04:13:07.695Z,69.90
2018-12-26T04:14:07.689Z,65.80
2018-12-26T04:15:07.660Z,77.30
2018-12-26T04:16:07.652Z,70.40
2018-12-26T04:17:07.643Z,67.40
2018-12-26T04:18:07.631Z,79.30
2018-12-26T04:19:07.638Z,73.20
2018-12-26T04:20:07.614Z,84.20
2018-12-26T04:21:07.602Z,70.80
2018-12-26T04:22:07.588Z,78.30
2018-12-26T04:23:07.591Z,72.70
2018-12-26T04:24:07.712Z,69.90
2018-12-26T04:25:07.562Z,69.70
2018-12-26T04:26:07.558Z,65.80
2018-12-26T04:27:15.483Z,69.40
2018-12-26T04:28:08.526Z,67.10
2018-12-26T04:29:07.535Z,67.70
2018-12-26T04:30:07.509Z,70.40
2018-12-26T04:31:07.501Z,66.20
2018-12-26T04:32:07.476Z,72.50
2018-12-26T04:33:07.468Z,66.40
2018-12-26T04:34:07.464Z,67.60
2018-12-26T04:35:07.458Z,66.60
2018-12-26T04:36:07.449Z,63.70
2018-12-26T04:37:07.426Z,71.00
2018-12-26T04:38:07.420Z,69.80
2018-12-26T04:39:07.404Z,73.70
2018-12-26T04:40:07.400Z,72.90
2018-12-26T04:41:07.381Z,71.60
2018-12-26T04:42:07.381Z,78.50
2018-12-26T04:43:07.365Z,75.10
2018-12-26T04:44:07.350Z,75.50
2018-12-26T04:45:07.350Z,70.00
2018-12-26T04:46:07.326Z,70.70
2018-12-26T04:47:07.315Z,74.30
2018-12-26T04:48:07.306Z,74.30
2018-12-26T04:49:07.294Z,76.00
2018-12-26T04:50:07.295Z,77.70
2018-12-26T04:51:07.272Z,73.10
2018-12-26T04:52:07.395Z,72.90
2018-12-26T04:53:07.253Z,74.30
2018-12-26T04:54:07.243Z,67.60
2018-12-26T04:55:07.262Z,72.00
2018-12-26T04:56:07.222Z,65.10
2018-12-26T04:57:07.218Z,62.20
2018-12-26T04:58:07.199Z,63.70
2018-12-26T04:59:07.185Z,63.90
2018-12-26T05:00:07.186Z,68.60
2018-12-26T05:01:07.166Z,65.70
2018-12-26T05:02:07.179Z,65.30
2018-12-26T05:03:07.141Z,60.30
2018-12-26T05:04:07.136Z,58.10
2018-12-26T05:05:07.133Z,56.80
2018-12-26T05:06:07.119Z,57.10
2018-12-26T05:07:07.099Z,57.60
2018-12-26T05:08:07.090Z,61.10
2018-12-26T05:09:07.078Z,58.00
2018-12-26T05:10:07.077Z,61.50
2018-12-26T05:11:07.056Z,58.90
2018-12-26T05:12:07.052Z,58.10
2018-12-26T05:13:07.033Z,52.30
2018-12-26T05:14:07.022Z,62.90
2018-12-26T05:15:07.023Z,57.90
2018-12-26T05:16:07.000Z,57.20
2018-12-26T05:17:06.992Z,60.70
2018-12-26T05:18:06.989Z,60.30
2018-12-26T05:19:06.967Z,56.20
2018-12-26T05:20:06.970Z,54.50
2018-12-26T05:21:06.961Z,62.10
2018-12-26T05:22:06.934Z,57.80
2018-12-26T05:23:06.924Z,59.10
2018-12-26T05:24:06.916Z,59.10
2018-12-26T05:25:06.938Z,57.90
2018-12-26T05:26:06.892Z,57.80
2018-12-26T05:27:06.894Z,59.20
2018-12-26T05:28:06.884Z,59.10
2018-12-26T05:29:06.862Z,57.10
2018-12-26T05:30:06.867Z,62.60
2018-12-26T05:31:06.854Z,64.20
2018-12-26T05:32:06.831Z,59.70
2018-12-26T05:33:06.825Z,64.60
2018-12-26T05:34:06.807Z,60.70
2018-12-26T05:35:06.797Z,60.30
2018-12-26T05:36:06.797Z,61.10
2018-12-26T05:37:06.782Z,60.30
2018-12-26T05:38:06.761Z,58.00
2018-12-26T05:39:06.751Z,61.90
2018-12-26T05:40:06.808Z,57.50
2018-12-26T05:41:06.741Z,62.80
2018-12-26T05:42:06.717Z,58.30
2018-12-26T05:43:06.712Z,58.10
2018-12-26T05:44:06.700Z,58.70
2018-12-26T05:45:06.686Z,56.80
2018-12-26T05:46:06.685Z,57.70
2018-12-26T05:47:06.669Z,59.90
2018-12-26T05:48:06.655Z,59.10
2018-12-26T05:49:06.643Z,60.50
2018-12-26T05:50:06.636Z,56.80
2018-12-26T05:51:06.633Z,57.70
2018-12-26T05:52:06.616Z,56.40
2018-12-26T05:53:06.606Z,57.90
2018-12-26T05:54:06.610Z,54.50
2018-12-26T05:55:06.584Z,53.70
2018-12-26T05:56:06.582Z,53.70
2018-12-26T05:57:06.559Z,52.20
2018-12-26T05:58:06.559Z,52.00
2018-12-26T05:59:06.537Z,55.20
2018-12-26T06:00:06.523Z,52.90
2018-12-26T06:01:06.550Z,51.90
2018-12-26T06:02:06.502Z,46.50
2018-12-26T06:03:06.491Z,49.00
2018-12-26T06:04:06.481Z,54.40
2018-12-26T06:05:06.470Z,58.00
2018-12-26T06:06:06.477Z,55.80
2018-12-26T06:07:06.464Z,54.90
2018-12-26T06:08:06.439Z,63.80
2018-12-26T06:09:06.430Z,57.60
2018-12-26T06:10:06.415Z,58.80
2018-12-26T06:11:06.410Z,61.80
2018-12-26T06:12:06.414Z,60.40
2018-12-26T06:13:06.390Z,59.60
2018-12-26T06:14:06.371Z,58.80
2018-12-26T06:15:06.363Z,60.40
2018-12-26T06:16:06.350Z,57.40
2018-12-26T06:17:06.352Z,56.70
2018-12-26T06:18:08.323Z,62.30
2018-12-26T06:19:06.316Z,56.80
2018-12-26T06:20:06.310Z,57.60
2018-12-26T06:21:06.305Z,54.20
2018-12-26T06:22:06.295Z,55.10
2018-12-26T06:23:06.284Z,56.10
2018-12-26T06:24:06.264Z,54.60
2018-12-26T06:25:06.257Z,59.90
2018-12-26T06:26:06.240Z,62.00
2018-12-26T06:27:06.245Z,58.10
2018-12-26T06:28:06.227Z,59.50
2018-12-26T06:29:06.221Z,57.40
2018-12-26T06:30:06.203Z,55.50
2018-12-26T06:31:06.187Z,59.80
2018-12-26T06:32:06.194Z,52.00
2018-12-26T06:33:06.167Z,56.30
2018-12-26T06:34:06.157Z,52.20
2018-12-26T06:35:06.158Z,58.90
2018-12-26T06:36:06.134Z,56.40
2018-12-26T06:37:06.139Z,57.50
2018-12-26T06:38:06.110Z,58.10
2018-12-26T06:39:06.104Z,59.30
2018-12-26T06:40:06.091Z,56.40
2018-12-26T06:41:06.084Z,56.00
2018-12-26T06:42:06.088Z,54.80
2018-12-26T06:43:06.058Z,54.20
2018-12-26T06:44:06.047Z,55.00
2018-12-26T06:45:06.038Z,52.60
2018-12-26T06:46:06.030Z,56.10
2018-12-26T06:47:06.017Z,52.50
2018-12-26T06:48:06.015Z,59.60
2018-12-26T06:49:05.993Z,55.10
2018-12-26T06:50:05.981Z,58.10
2018-12-26T06:51:05.982Z,54.20
2018-12-26T06:52:05.961Z,55.50
2018-12-26T06:53:05.972Z,56.60
2018-12-26T06:54:05.940Z,54.00
2018-12-26T06:55:05.931Z,52.40
2018-12-26T06:56:05.915Z,51.60
2018-12-26T06:57:05.909Z,49.40
2018-12-26T06:58:05.909Z,50.70
2018-12-26T06:59:05.883Z,51.20
2018-12-26T07:00:05.873Z,48.60
2018-12-26T07:01:05.862Z,52.80
2018-12-26T07:02:05.852Z,47.50
2018-12-26T07:03:05.853Z,49.40
2018-12-26T07:04:05.861Z,48.40
2018-12-26T07:05:05.824Z,50.10
2018-12-26T07:06:05.807Z,50.80
2018-12-26T07:07:05.796Z,48.10
2018-12-26T07:08:05.798Z,47.80
2018-12-26T07:09:05.776Z,52.50
2018-12-26T07:10:05.771Z,53.00
2018-12-26T07:11:05.755Z,50.70
2018-12-26T07:12:05.748Z,49.10
2018-12-26T07:13:05.743Z,48.30
2018-12-26T07:14:05.726Z,49.20
2018-12-26T07:15:05.717Z,46.40
2018-12-26T07:16:05.737Z,44.40
2018-12-26T07:17:05.728Z,46.20
2018-12-26T07:18:05.736Z,51.50
2018-12-26T07:19:05.667Z,50.70
2018-12-26T07:20:05.657Z,46.60
2018-12-26T07:21:05.647Z,47.30
2018-12-26T07:22:05.642Z,49.30
2018-12-26T07:23:05.645Z,49.30
2018-12-26T07:24:05.621Z,49.50
2018-12-26T07:25:05.605Z,50.20
2018-12-26T07:26:05.599Z,49.20
2018-12-26T07:27:05.583Z,46.50
2018-12-26T07:28:09.324Z,44.80
2018-12-26T07:29:05.561Z,44.60
2018-12-26T07:30:05.555Z,45.20
2018-12-26T07:31:05.616Z,51.10
2018-12-26T07:32:05.545Z,46.50
2018-12-26T07:33:05.557Z,45.00
2018-12-26T07:34:05.518Z,44.70
2018-12-26T07:35:05.494Z,48.20
2018-12-26T07:36:05.497Z,47.70
2018-12-26T07:37:05.473Z,46.10
2018-12-26T07:38:05.464Z,44.70
2018-12-26T07:39:05.464Z,43.40
2018-12-26T07:40:05.455Z,44.70
2018-12-26T07:41:05.431Z,44.00
2018-12-26T07:42:05.422Z,43.30
2018-12-26T07:43:05.412Z,41.70
2018-12-26T07:44:05.417Z,40.30
2018-12-26T07:45:05.393Z,37.80
2018-12-26T07:46:05.376Z,39.50
2018-12-26T07:47:05.365Z,38.10
2018-12-26T07:48:05.356Z,37.80
2018-12-26T07:49:05.358Z,37.50
2018-12-26T07:50:05.333Z,37.90
2018-12-26T07:51:05.324Z,35.80
2018-12-26T07:52:05.314Z,35.20
2018-12-26T07:53:05.301Z,37.10
2018-12-26T07:54:05.315Z,37.50
2018-12-26T07:55:05.278Z,37.10
2018-12-26T07:56:05.267Z,39.10
2018-12-26T07:57:05.260Z,37.20
2018-12-26T07:58:05.246Z,37.20
2018-12-26T07:59:05.243Z,37.30
2018-12-26T08:00:05.234Z,34.70
2018-12-26T08:01:05.213Z,32.30
2018-12-26T08:02:05.204Z,35.40
2018-12-26T08:03:05.193Z,35.20
2018-12-26T08:04:05.185Z,38.20
2018-12-26T08:05:05.181Z,37.40
2018-12-26T08:06:05.165Z,38.50
2018-12-26T08:07:05.148Z,40.00
2018-12-26T08:08:05.142Z,35.40
2018-12-26T08:09:05.148Z,37.90
2018-12-26T08:10:05.129Z,37.10
2018-12-26T08:11:05.105Z,37.50
2018-12-26T08:12:05.095Z,35.10
2018-12-26T08:13:05.083Z,37.90
2018-12-26T08:14:05.078Z,37.60
2018-12-26T08:15:10.539Z,37.50
2018-12-26T08:16:06.054Z,37.40
2018-12-26T08:17:05.038Z,35.90
2018-12-26T08:18:05.034Z,35.70
2018-12-26T08:19:05.019Z,37.80
2018-12-26T08:20:05.021Z,36.00
2018-12-26T08:21:05.010Z,37.80
2018-12-26T08:22:04.985Z,35.90
2018-12-26T08:23:04.978Z,35.20
2018-12-26T08:24:04.965Z,34.70
2018-12-26T08:25:04.971Z,35.00
2018-12-26T08:26:04.946Z,38.60
2018-12-26T08:27:04.932Z,35.80
2018-12-26T08:28:04.921Z,41.20
2018-12-26T08:29:04.910Z,41.00
2018-12-26T08:30:04.912Z,38.10
2018-12-26T08:31:04.891Z,38.40
2018-12-26T08:32:04.881Z,37.10
2018-12-26T08:33:04.873Z,37.90
2018-12-26T08:34:04.856Z,38.20
2018-12-26T08:35:04.857Z,38.60
2018-12-26T08:36:04.843Z,38.20
2018-12-26T08:37:04.828Z,36.50
2018-12-26T08:38:04.813Z,40.90
2018-12-26T08:39:04.808Z,40.40
2018-12-26T08:40:04.818Z,41.90
2018-12-26T08:41:04.780Z,39.80
2018-12-26T08:42:04.770Z,43.10
2018-12-26T08:43:04.773Z,37.70
2018-12-26T08:44:04.751Z,38.40
2018-12-26T08:45:04.736Z,38.40
2018-12-26T08:46:04.737Z,38.20
2018-12-26T08:47:04.716Z,36.30
2018-12-26T08:48:04.789Z,38.20
2018-12-26T08:49:04.704Z,39.00
2018-12-26T08:50:04.695Z,36.70
2018-12-26T08:51:04.683Z,36.10
2018-12-26T08:52:04.661Z,35.70
2018-12-26T08:53:04.652Z,38.00
2018-12-26T08:54:04.644Z,37.80
2018-12-26T08:55:04.629Z,38.40
2018-12-26T08:56:04.630Z,34.80
2018-12-26T08:57:04.607Z,37.80
2018-12-26T08:58:04.596Z,40.20
2018-12-26T08:59:04.586Z,39.80
2018-12-26T09:00:04.583Z,36.20
2018-12-26T09:01:04.578Z,37.80
2018-12-26T09:02:04.561Z,42.20
2018-12-26T09:03:04.544Z,39.00
2018-12-26T09:04:04.531Z,37.90
2018-12-26T09:05:04.537Z,41.10
2018-12-26T09:06:04.523Z,38.90
2018-12-26T09:07:04.504Z,40.70
2018-12-26T09:08:04.504Z,37.70
2018-12-26T09:09:04.478Z,38.00
2018-12-26T09:10:04.468Z,40.70
2018-12-26T09:11:04.469Z,38.60
2018-12-26T09:12:04.450Z,33.20
2018-12-26T09:13:04.432Z,33.10
2018-12-26T09:14:04.423Z,37.50
2018-12-26T09:15:04.414Z,42.70
2018-12-26T09:16:04.448Z,35.20
2018-12-26T09:17:04.391Z,38.00
2018-12-26T09:18:04.400Z,36.50
2018-12-26T09:19:04.370Z,34.40
2018-12-26T09:20:04.359Z,37.40
2018-12-26T09:21:04.347Z,38.90
2018-12-26T09:22:04.352Z,38.00
2018-12-26T09:23:04.330Z,39.30
2018-12-26T09:24:04.337Z,37.40
2018-12-26T09:25:04.304Z,38.60
2018-12-26T09:26:04.296Z,38.30
2018-12-26T09:27:04.294Z,37.50
2018-12-26T09:28:04.275Z,35.00
2018-12-26T09:29:04.272Z,34.30
2018-12-26T09:30:04.277Z,40.00
2018-12-26T09:31:04.240Z,36.30
2018-12-26T09:32:04.240Z,37.60
2018-12-26T09:33:04.221Z,44.10
2018-12-26T09:34:04.251Z,39.40
2018-12-26T09:35:04.207Z,41.60
2018-12-26T09:36:04.215Z,42.20
2018-12-26T09:37:04.187Z,47.20
2018-12-26T09:38:04.169Z,47.60
2018-12-26T09:39:04.155Z,40.30
2018-12-26T09:40:04.148Z,38.30
2018-12-26T09:41:04.134Z,43.70
2018-12-26T09:42:04.157Z,47.40
2018-12-26T09:43:04.111Z,45.50
2018-12-26T09:44:04.097Z,41.90
2018-12-26T09:45:04.087Z,42.80
2018-12-26T09:46:04.078Z,42.90
2018-12-26T09:47:04.088Z,40.80
2018-12-26T09:48:04.066Z,41.40
2018-12-26T09:49:04.051Z,45.00
2018-12-26T09:50:04.036Z,46.60
2018-12-26T09:51:04.023Z,49.10
2018-12-26T09:52:04.026Z,44.50
2018-12-26T09:53:04.017Z,45.20
2018-12-26T09:54:03.992Z,44.00
2018-12-26T09:55:03.982Z,42.50
2018-12-26T09:56:03.968Z,43.50
2018-12-26T09:57:03.957Z,46.10
2018-12-26T09:58:03.970Z,50.00
2018-12-26T09:59:03.938Z,43.70
2018-12-26T10:00:03.927Z,41.50
2018-12-26T10:01:03.916Z,41.50
2018-12-26T10:02:03.903Z,42.60
2018-12-26T10:03:03.900Z,46.00
2018-12-26T10:04:03.889Z,44.60
2018-12-26T10:05:03.876Z,45.30
2018-12-26T10:06:03.861Z,43.20
2018-12-26T10:07:03.853Z,42.80
2018-12-26T10:08:03.867Z,46.80
2018-12-26T10:09:03.855Z,44.50
2018-12-26T10:10:03.816Z,40.80
2018-12-26T10:11:03.808Z,40.70
2018-12-26T10:12:03.796Z,43.80
2018-12-26T10:13:03.794Z,47.90
2018-12-26T10:14:03.784Z,46.50
2018-12-26T10:15:03.766Z,44.00
2018-12-26T10:16:03.751Z,46.40
2018-12-26T10:17:03.738Z,48.50
2018-12-26T10:18:03.748Z,47.10
2018-12-26T10:19:03.719Z,49.80
2018-12-26T10:20:03.708Z,49.80
2018-12-26T10:21:03.696Z,46.70
2018-12-26T10:22:03.688Z,46.40
2018-12-26T10:23:03.694Z,50.60
2018-12-26T10:24:03.663Z,48.70
2018-12-26T10:25:03.653Z,46.40
2018-12-26T10:26:03.653Z,46.10
2018-12-26T10:27:03.636Z,44.30
2018-12-26T10:28:03.622Z,45.30
2018-12-26T10:29:03.619Z,48.90
2018-12-26T10:30:03.601Z,48.70
2018-12-26T10:31:03.590Z,47.50
2018-12-26T10:32:03.579Z,47.90
2018-12-26T10:33:03.565Z,43.90
2018-12-26T10:34:03.573Z,43.40
2018-12-26T10:35:03.543Z,45.70
2018-12-26T10:36:03.546Z,44.30
2018-12-26T10:37:03.531Z,40.60
2018-12-26T10:38:03.520Z,47.90
2018-12-26T10:39:03.539Z,41.50
2018-12-26T10:40:03.491Z,41.00
2018-12-26T10:41:03.483Z,42.80
2018-12-26T10:42:03.477Z,46.30
2018-12-26T10:43:03.468Z,40.70
2018-12-26T10:44:03.460Z,45.00
2018-12-26T10:45:03.437Z,43.40
2018-12-26T10:46:03.429Z,40.00
2018-12-26T10:47:03.419Z,43.80
2018-12-26T10:48:03.424Z,43.30
2018-12-26T10:49:03.403Z,45.30
2018-12-26T10:50:03.392Z,44.90
2018-12-26T10:51:03.373Z,41.00
2018-12-26T10:52:03.371Z,49.20
2018-12-26T10:53:03.369Z,49.40
2018-12-26T10:54:03.350Z,47.70
2018-12-26T10:55:03.335Z,49.00
2018-12-26T10:56:03.327Z,54.20
2018-12-26T10:57:03.308Z,45.60
2018-12-26T10:58:03.299Z,46.80
2018-12-26T10:59:09.930Z,44.70
2018-12-26T11:00:04.275Z,46.80
2018-12-26T11:01:03.262Z,47.80
2018-12-26T11:02:03.252Z,45.60
2018-12-26T11:03:03.245Z,44.30
2018-12-26T11:04:03.262Z,46.40
2018-12-26T11:05:03.226Z,45.30
2018-12-26T11:06:03.219Z,47.30
2018-12-26T11:07:03.200Z,52.10
2018-12-26T11:08:03.186Z,43.10
2018-12-26T11:09:03.184Z,44.30
2018-12-26T11:10:03.177Z,46.50
2018-12-26T11:11:03.157Z,47.20
2018-12-26T11:12:03.148Z,50.60
2018-12-26T11:13:03.134Z,48.20
2018-12-26T11:14:03.122Z,46.00
2018-12-26T11:15:03.123Z,46.90
2018-12-26T11:16:03.132Z,46.90
2018-12-26T11:17:03.098Z,44.40
2018-12-26T11:18:03.081Z,47.90
2018-12-26T11:19:03.075Z,49.40
2018-12-26T11:20:03.068Z,45.40
2018-12-26T11:21:03.055Z,43.40
2018-12-26T11:22:03.039Z,45.10
2018-12-26T11:23:03.033Z,46.40
2018-12-26T11:24:03.016Z,45.80
2018-12-26T11:25:03.014Z,44.00
2018-12-26T11:26:02.994Z,45.50
2018-12-26T11:27:02.989Z,44.00
2018-12-26T11:28:02.970Z,41.00
2018-12-26T11:29:02.978Z,44.10
2018-12-26T11:30:02.960Z,42.40
2018-12-26T11:31:02.939Z,44.20
2018-12-26T11:32:02.928Z,45.30
2018-12-26T11:33:02.920Z,45.50
2018-12-26T11:34:02.906Z,47.90
2018-12-26T11:35:02.912Z,43.20
2018-12-26T11:36:02.890Z,49.60
2018-12-26T11:37:02.871Z,46.80
2018-12-26T11:38:02.872Z,42.80
2018-12-26T11:39:02.865Z,46.50
2018-12-26T11:40:02.858Z,42.10
2018-12-26T11:41:02.837Z,47.20
2018-12-26T11:42:02.845Z,44.20
2018-12-26T11:43:02.812Z,44.20
2018-12-26T11:44:02.800Z,43.90
2018-12-26T11:45:02.807Z,44.50
2018-12-26T11:46:02.785Z,41.00
2018-12-26T11:47:02.789Z,39.60
2018-12-26T11:48:02.755Z,41.90
2018-12-26T11:49:02.743Z,39.10
2018-12-26T11:50:02.772Z,42.10
2018-12-26T11:51:02.722Z,41.30
2018-12-26T11:52:02.726Z,45.50
2018-12-26T11:53:02.704Z,41.50
2018-12-26T11:54:02.693Z,42.00
2018-12-26T11:55:02.680Z,45.10
2018-12-26T11:56:02.687Z,46.10
2018-12-26T11:57:02.662Z,42.80
2018-12-26T11:58:02.649Z,44.00
2018-12-26T11:59:02.652Z,45.30
2018-12-26T12:00:02.650Z,44.70
2018-12-26T12:01:02.634Z,42.00
2018-12-26T12:02:02.605Z,37.40
2018-12-26T12:03:02.596Z,40.60
2018-12-26T12:04:02.588Z,41.60
2018-12-26T12:05:02.598Z,42.40
2018-12-26T12:06:02.583Z,42.80
2018-12-26T12:07:02.551Z,42.30
2018-12-26T12:08:02.543Z,39.70
2018-12-26T12:09:02.529Z,38.70
2018-12-26T12:10:02.524Z,39.20
2018-12-26T12:11:02.517Z,38.70
2018-12-26T12:12:02.514Z,40.00
2018-12-26T12:13:02.537Z,41.40
2018-12-26T12:14:02.480Z,37.70
2018-12-26T12:15:02.464Z,36.80
2018-12-26T12:16:02.467Z,40.50
2018-12-26T12:17:02.449Z,38.80
2018-12-26T12:18:02.438Z,40.10
2018-12-26T12:19:02.423Z,38.00
2018-12-26T12:20:02.415Z,39.40
2018-12-26T12:21:02.410Z,40.60
2018-12-26T12:22:02.394Z,41.70
2018-12-26T12:23:02.396Z,42.90
2018-12-26T12:24:02.366Z,43.70
2018-12-26T12:25:02.361Z,44.00
2018-12-26T12:26:02.371Z,42.10
2018-12-26T12:27:02.332Z,42.80
2018-12-26T12:28:02.363Z,46.50
2018-12-26T12:29:02.322Z,45.10
2018-12-26T12:30:02.300Z,44.10
2018-12-26T12:31:02.369Z,47.10
2018-12-26T12:32:02.281Z,46.40
2018-12-26T12:33:02.274Z,49.80
2018-12-26T12:34:02.319Z,46.10
2018-12-26T12:35:02.295Z,43.60
2018-12-26T12:36:02.332Z,45.50
2018-12-26T12:37:02.245Z,47.50
2018-12-26T12:38:02.224Z,50.30
2018-12-26T12:39:02.204Z,60.40
2018-12-26T12:40:02.199Z,51.70
2018-12-26T12:41:02.190Z,43.60
2018-12-26T12:42:02.219Z,48.20
2018-12-26T12:43:02.162Z,49.40
2018-12-26T12:44:02.156Z,48.30
2018-12-26T12:45:02.166Z,49.20
2018-12-26T12:46:02.153Z,50.80
2018-12-26T12:47:02.129Z,52.80
2018-12-26T12:48:02.112Z,48.50
2018-12-26T12:49:02.095Z,47.60
2018-12-26T12:50:02.092Z,44.70
2018-12-26T12:51:02.077Z,44.50
2018-12-26T12:52:02.177Z,43.20
2018-12-26T12:53:02.054Z,45.60